Heart Beat — ZJL9005 — position and weather

sailwx.info

Track history (hours):
 
Tides and Currents Weather Stations Pressure Air Temp Water Temp Dewpoint Dewpoint Depression Visibility Wind Speed Wind Dir Waves Ship Positions

Heart Beat

Last reported at 2018-Apr-04 23:01 UTC. Time now 2018-Jun-21 00:58 UTC.
Position N 36°52' W 076°19'.
Warning: this ship's position is months out of date.

Length 15 m.

Type: Pleasure craft. MMSI: 338087706.

Date/timePositionNaut miles runAvg speedWind from/ knotsBaromVisibWave heightAir tempDewpointWater temp
2018-Apr-04 23:01N 36°52' W 076°19'0 6.8
2018-Apr-04 22:58N 36°51' W 076°18'3 6.6
2018-Apr-04 22:30N 36°48' W 076°17'117 3.2
2018-Apr-03 10:31N 34°53' W 076°41'1 5.8
2018-Apr-03 10:22N 34°52' W 076°42'2 5.8
2018-Apr-03 10:00N 34°50' W 076°41'2 4.7
2018-Apr-03 09:30N 34°48' W 076°41'1 2.8
2018-Apr-03 09:00N 34°46' W 076°41'2 5.0
2018-Apr-03 08:30N 34°44' W 076°41'2 4.9
2018-Apr-03 08:00N 34°42' W 076°40'3 5.6
2018-Apr-03 07:30N 34°39' W 076°41'3 6.5
2018-Apr-03 06:59N 34°36' W 076°41'275 6.4
2018-Apr-01 12:08N 31°51' W 081°06'1 5.4
2018-Apr-01 11:57N 31°52' W 081°07'  
2018-Mar-28 14:27N 27°01' W 080°06'3 6.3
2018-Mar-28 14:00N 26°58' W 080°05'2 4.4
2018-Mar-28 13:30N 26°56' W 080°05'  
Track history (hours):
 
Tides and Currents Weather Stations Pressure Air Temp Water Temp Dewpoint Dewpoint Depression Visibility Wind Speed Wind Dir Waves Ship Positions

Heart Beat

Last reported at 2018-Apr-04 23:01 UTC. Time now 2018-Jun-21 00:58 UTC.
Position N 36°52' W 076°19'.
Warning: this ship's position is months out of date.

Length 15 m.

Type: Pleasure craft. MMSI: 338087706.

Date/timePositionNaut miles runAvg speedWind from/ knotsBaromVisibWave heightAir tempDewpointWater temp
2018-Apr-04 23:01N 36°52' W 076°19'0 6.8
2018-Apr-04 22:58N 36°51' W 076°18'3 6.6
2018-Apr-04 22:30N 36°48' W 076°17'117 3.2
2018-Apr-03 10:31N 34°53' W 076°41'1 5.8
2018-Apr-03 10:22N 34°52' W 076°42'2 5.8
2018-Apr-03 10:00N 34°50' W 076°41'2 4.7
2018-Apr-03 09:30N 34°48' W 076°41'1 2.8
2018-Apr-03 09:00N 34°46' W 076°41'2 5.0
2018-Apr-03 08:30N 34°44' W 076°41'2 4.9
2018-Apr-03 08:00N 34°42' W 076°40'3 5.6
2018-Apr-03 07:30N 34°39' W 076°41'3 6.5
2018-Apr-03 06:59N 34°36' W 076°41'275 6.4
2018-Apr-01 12:08N 31°51' W 081°06'1 5.4
2018-Apr-01 11:57N 31°52' W 081°07'  
2018-Mar-28 14:27N 27°01' W 080°06'3 6.3
2018-Mar-28 14:00N 26°58' W 080°05'2 4.4
2018-Mar-28 13:30N 26°56' W 080°05'  

Dump ship's entire track history